Time,TemperatureF,DewpointF,PressureIn,WindDirection,WindDirectionDegrees,WindSpeedMPH,WindSpeedGustMPH,Humidity,HourlyPrecipIn,Conditions,Clouds,dailyrainin,SoftwareType,DateUTC
2013-08-02 00:08:00,58.0,51.4,29.89,North,0,0.0,0.0,78,0.00,,,0.00,WUHU216HW,2013-08-02 05:08:00,
2013-08-02 00:18:00,58.2,51.5,29.89,North,0,0.0,0.0,78,0.00,,,0.00,WUHU216HW,2013-08-02 05:18:00,
2013-08-02 00:28:00,58.7,52.0,29.88,North,0,0.0,0.0,78,0.00,,,0.00,WUHU216HW,2013-08-02 05:28:00,
2013-08-02 00:38:00,59.0,52.4,29.88,ESE,109,0.4,0.7,78,0.00,,,0.00,WUHU216HW,2013-08-02 05:38:00,
2013-08-02 00:48:00,59.4,52.7,29.88,SE,124,0.4,0.4,78,0.00,,,0.00,WUHU216HW,2013-08-02 05:48:00,
2013-08-02 00:58:00,59.3,52.6,29.87,East,99,0.5,0.7,78,0.00,,,0.00,WUHU216HW,2013-08-02 05:58:00,
2013-08-02 01:09:00,58.9,52.2,29.87,ESE,113,0.2,0.2,78,0.00,,,0.00,WUHU216HW,2013-08-02 06:09:00,
2013-08-02 01:19:00,58.9,52.2,29.87,North,0,0.0,0.0,78,0.00,,,0.00,WUHU216HW,2013-08-02 06:19:00,
2013-08-02 01:29:00,59.5,53.2,29.86,North,0,0.0,0.0,79,0.00,,,0.00,WUHU216HW,2013-08-02 06:29:00,
2013-08-02 01:39:00,60.2,53.5,29.86,SSW,203,1.1,1.1,78,0.00,,,0.00,WUHU216HW,2013-08-02 06:39:00,
2013-08-02 01:50:00,60.7,54.7,29.86,NE,34,1.4,1.8,80,0.01,,,0.01,WUHU216HW,2013-08-02 06:50:00,
2013-08-02 02:00:00,60.3,53.9,29.88,West,269,0.9,2.2,79,0.02,,,0.02,WUHU216HW,2013-08-02 07:00:00,
2013-08-02 02:10:00,60.3,53.9,29.87,NNW,327,1.0,2.0,79,0.02,,,0.02,WUHU216HW,2013-08-02 07:10:00,
2013-08-02 02:21:00,60.3,53.9,29.86,ENE,65,0.8,1.3,79,0.02,,,0.02,WUHU216HW,2013-08-02 07:21:00,
2013-08-02 02:31:00,60.2,54.2,29.86,SE,136,0.9,1.8,80,0.02,,,0.02,WUHU216HW,2013-08-02 07:31:00,
2013-08-02 02:41:00,60.0,54.0,29.86,ESE,121,1.0,1.8,80,0.02,,,0.02,WUHU216HW,2013-08-02 07:41:00,
2013-08-02 02:51:00,60.2,54.2,29.84,ESE,106,1.3,2.5,80,0.01,,,0.02,WUHU216HW,2013-08-02 07:51:00,
2013-08-02 03:02:00,60.0,54.0,29.84,East,81,0.4,0.7,80,0.00,,,0.02,WUHU216HW,2013-08-02 08:02:00,
2013-08-02 03:12:00,59.5,53.6,29.85,West,270,0.4,0.4,80,0.00,,,0.02,WUHU216HW,2013-08-02 08:12:00,
2013-08-02 03:22:00,59.8,53.8,29.85,South,180,0.9,1.8,80,0.00,,,0.02,WUHU216HW,2013-08-02 08:22:00,
2013-08-02 03:32:00,60.0,54.0,29.85,SSW,213,0.8,2.0,80,0.01,,,0.03,WUHU216HW,2013-08-02 08:32:00,
2013-08-02 03:42:00,59.8,53.8,29.84,East,95,0.7,0.9,80,0.01,,,0.03,WUHU216HW,2013-08-02 08:42:00,
2013-08-02 03:53:00,59.5,53.6,29.85,North,0,0.0,0.0,80,0.02,,,0.04,WUHU216HW,2013-08-02 08:53:00,
2013-08-02 04:04:00,60.0,53.6,29.86,North,5,0.4,0.7,79,0.02,,,0.04,WUHU216HW,2013-08-02 09:04:00,
2013-08-02 04:14:00,60.2,53.5,29.86,North,8,2.1,4.0,78,0.02,,,0.04,WUHU216HW,2013-08-02 09:14:00,
2013-08-02 04:24:00,60.0,53.6,29.85,ESE,122,1.1,1.8,79,0.01,,,0.04,WUHU216HW,2013-08-02 09:24:00,
2013-08-02 04:34:00,60.0,53.6,29.85,NNE,28,1.2,2.0,79,0.02,,,0.05,WUHU216HW,2013-08-02 09:34:00,
2013-08-02 04:44:00,59.8,53.8,29.85,SE,125,0.5,0.9,80,0.01,,,0.05,WUHU216HW,2013-08-02 09:44:00,
2013-08-02 04:54:00,59.5,53.6,29.84,SSE,158,0.8,0.9,80,0.01,,,0.05,WUHU216HW,2013-08-02 09:54:00,
2013-08-02 05:05:00,59.0,53.1,29.84,ENE,68,0.2,0.2,80,0.01,,,0.05,WUHU216HW,2013-08-02 10:05:00,
2013-08-02 05:15:00,58.7,52.7,29.84,North,0,0.0,0.0,80,0.01,,,0.05,WUHU216HW,2013-08-02 10:15:00,
2013-08-02 05:26:00,58.5,52.5,29.84,ESE,116,0.7,0.9,80,0.00,,,0.05,WUHU216HW,2013-08-02 10:26:00,
2013-08-02 05:36:00,58.5,52.5,29.83,ESE,111,0.9,2.0,80,0.00,,,0.05,WUHU216HW,2013-08-02 10:36:00,
2013-08-02 05:46:00,58.9,52.9,29.83,SE,142,1.1,2.5,80,0.00,,,0.05,WUHU216HW,2013-08-02 10:46:00,
2013-08-02 05:56:00,58.9,52.9,29.83,ENE,57,1.1,2.2,80,0.00,,,0.05,WUHU216HW,2013-08-02 10:56:00,
2013-08-02 06:07:00,58.9,52.9,29.83,ENE,61,0.7,2.0,80,0.00,,,0.05,WUHU216HW,2013-08-02 11:07:00,
2013-08-02 06:17:00,59.3,53.3,29.83,SE,146,0.7,1.8,80,0.00,,,0.05,WUHU216HW,2013-08-02 11:17:00,
2013-08-02 06:27:00,59.8,53.8,29.84,SE,128,0.5,0.9,80,0.00,,,0.05,WUHU216HW,2013-08-02 11:27:00,
2013-08-02 06:37:00,60.5,54.5,29.83,East,97,0.6,1.1,80,0.00,,,0.05,WUHU216HW,2013-08-02 11:37:00,
2013-08-02 06:47:00,61.0,54.7,29.83,ESE,104,0.3,0.4,79,0.00,,,0.05,WUHU216HW,2013-08-02 11:47:00,
2013-08-02 06:57:00,61.8,55.4,29.83,ESE,118,0.6,1.1,79,0.00,,,0.05,WUHU216HW,2013-08-02 11:57:00,
2013-08-02 07:08:00,62.7,56.3,29.83,South,170,0.6,1.1,79,0.00,,,0.05,WUHU216HW,2013-08-02 12:08:00,
2013-08-02 07:19:00,63.4,56.6,29.83,WSW,253,0.6,1.6,78,0.00,,,0.05,WUHU216HW,2013-08-02 12:19:00,
2013-08-02 07:29:00,64.0,57.6,29.84,WSW,245,0.9,1.8,79,0.00,,,0.05,WUHU216HW,2013-08-02 12:29:00,
2013-08-02 07:39:00,64.3,57.8,29.84,SW,228,0.9,1.3,79,0.00,,,0.05,WUHU216HW,2013-08-02 12:39:00,
2013-08-02 07:49:00,64.4,58.0,29.84,SW,235,1.2,1.8,79,0.00,,,0.05,WUHU216HW,2013-08-02 12:49:00,
2013-08-02 08:00:00,64.9,58.5,29.84,SW,219,0.8,1.8,79,0.00,,,0.05,WUHU216HW,2013-08-02 13:00:00,
2013-08-02 08:10:00,65.3,58.9,29.84,WSW,245,0.9,1.3,79,0.00,,,0.05,WUHU216HW,2013-08-02 13:10:00,
2013-08-02 08:20:00,66.0,59.6,29.84,West,271,1.2,3.8,79,0.00,,,0.05,WUHU216HW,2013-08-02 13:20:00,
2013-08-02 08:30:00,66.8,60.3,29.84,SW,214,0.9,1.3,79,0.00,,,0.05,WUHU216HW,2013-08-02 13:30:00,
2013-08-02 08:41:00,68.3,61.7,29.84,SW,229,0.7,1.6,79,0.00,,,0.05,WUHU216HW,2013-08-02 13:41:00,
2013-08-02 08:51:00,70.9,64.0,29.83,SW,219,1.2,2.0,78,0.00,,,0.05,WUHU216HW,2013-08-02 13:51:00,
2013-08-02 09:02:00,73.0,65.7,29.84,WSW,250,1.3,2.2,77,0.00,,,0.05,WUHU216HW,2013-08-02 14:02:00,
2013-08-02 09:12:00,72.1,64.8,29.84,West,269,2.0,4.0,77,0.00,,,0.05,WUHU216HW,2013-08-02 14:12:00,
2013-08-02 09:22:00,71.0,63.4,29.83,West,260,1.7,2.5,76,0.00,,,0.05,WUHU216HW,2013-08-02 14:22:00,
2013-08-02 09:32:00,71.4,63.8,29.83,West,259,2.3,3.6,76,0.00,,,0.05,WUHU216HW,2013-08-02 14:32:00,
2013-08-02 09:42:00,72.1,64.8,29.83,SW,236,1.2,2.0,77,0.00,,,0.05,WUHU216HW,2013-08-02 14:42:00,
2013-08-02 09:53:00,72.8,64.7,29.83,WSW,248,1.6,4.5,75,0.00,,,0.05,WUHU216HW,2013-08-02 14:53:00,
2013-08-02 10:03:00,73.0,65.0,29.83,West,263,1.6,4.5,75,0.00,,,0.05,WUHU216HW,2013-08-02 15:03:00,
2013-08-02 10:13:00,73.6,64.8,29.83,WNW,300,3.0,4.3,73,0.00,,,0.05,WUHU216HW,2013-08-02 15:13:00,
2013-08-02 10:24:00,74.6,65.8,29.84,WNW,293,3.0,5.4,73,0.00,,,0.05,WUHU216HW,2013-08-02 15:24:00,
2013-08-02 10:34:00,75.4,65.4,29.84,West,260,3.3,5.8,70,0.00,,,0.05,WUHU216HW,2013-08-02 15:34:00,
2013-08-02 10:44:00,74.3,65.1,29.84,NW,309,1.9,2.9,72,0.00,,,0.05,WUHU216HW,2013-08-02 15:44:00,
2013-08-02 10:54:00,74.1,64.5,29.84,NNW,328,2.9,4.9,71,0.00,,,0.05,WUHU216HW,2013-08-02 15:54:00,
2013-08-02 11:05:00,74.5,65.3,29.84,NW,319,2.8,4.3,72,0.00,,,0.05,WUHU216HW,2013-08-02 16:05:00,
2013-08-02 11:15:00,75.4,65.0,29.84,NW,306,2.3,3.6,69,0.00,,,0.05,WUHU216HW,2013-08-02 16:15:00,
2013-08-02 11:26:00,75.4,64.1,29.84,NNW,343,2.3,3.8,67,0.00,,,0.05,WUHU216HW,2013-08-02 16:26:00,
2013-08-02 11:36:00,76.1,64.8,29.84,WNW,298,3.8,5.4,67,0.00,,,0.05,WUHU216HW,2013-08-02 16:36:00,
2013-08-02 11:46:00,76.8,65.0,29.85,WNW,289,2.4,4.3,66,0.00,,,0.05,WUHU216HW,2013-08-02 16:46:00,
2013-08-02 11:56:00,76.8,64.2,29.84,NNW,330,3.0,4.5,64,0.00,,,0.05,WUHU216HW,2013-08-02 16:56:00,
2013-08-02 12:07:00,77.5,64.4,29.84,NNW,337,2.2,3.6,64,0.00,,,0.05,WUHU216HW,2013-08-02 17:07:00,
2013-08-02 12:17:00,77.9,64.8,29.84,NNW,337,2.8,4.5,64,0.00,,,0.05,WUHU216HW,2013-08-02 17:17:00,
2013-08-02 12:27:00,77.0,64.4,29.84,NNW,338,2.8,4.7,64,0.00,,,0.05,WUHU216HW,2013-08-02 17:27:00,
2013-08-02 12:37:00,77.9,63.9,29.84,NW,324,3.4,6.3,62,0.00,,,0.05,WUHU216HW,2013-08-02 17:37:00,
2013-08-02 12:48:00,78.3,62.2,29.84,WNW,298,2.9,4.7,58,0.00,,,0.05,WUHU216HW,2013-08-02 17:48:00,
2013-08-02 12:58:00,77.5,61.0,29.85,WNW,294,4.8,7.8,57,0.00,,,0.05,WUHU216HW,2013-08-02 17:58:00,
2013-08-02 13:08:00,79.5,63.4,29.85,West,277,4.4,7.4,58,0.00,,,0.05,WUHU216HW,2013-08-02 18:08:00,
2013-08-02 13:18:00,79.3,62.7,29.85,WNW,296,4.3,6.5,57,0.00,,,0.05,WUHU216HW,2013-08-02 18:18:00,
2013-08-02 13:29:00,79.8,62.0,29.84,West,264,4.4,6.9,55,0.00,,,0.05,WUHU216HW,2013-08-02 18:29:00,
2013-08-02 13:39:00,79.3,59.5,29.84,NW,319,3.5,6.9,51,0.00,,,0.05,WUHU216HW,2013-08-02 18:39:00,
2013-08-02 13:49:00,80.6,60.7,29.84,WNW,297,3.9,6.7,51,0.00,,,0.05,WUHU216HW,2013-08-02 18:49:00,
2013-08-02 14:00:00,80.0,61.2,29.84,West,271,2.8,5.1,53,0.00,,,0.05,WUHU216HW,2013-08-02 19:00:00,
2013-08-02 14:10:00,80.4,58.7,29.84,NW,308,4.0,6.9,48,0.00,,,0.05,WUHU216HW,2013-08-02 19:10:00,
2013-08-02 14:20:00,79.8,58.1,29.85,NW,324,3.6,7.6,48,0.00,,,0.05,WUHU216HW,2013-08-02 19:20:00,
2013-08-02 14:31:00,79.0,59.8,29.85,WNW,286,4.3,6.7,52,0.00,,,0.05,WUHU216HW,2013-08-02 19:31:00,
2013-08-02 14:41:00,78.8,59.0,29.85,WNW,290,3.5,5.6,51,0.00,,,0.05,WUHU216HW,2013-08-02 19:41:00,
2013-08-02 14:51:00,78.4,58.6,29.85,West,266,3.5,4.7,51,0.00,,,0.05,WUHU216HW,2013-08-02 19:51:00,
2013-08-02 15:02:00,78.4,59.8,29.85,WNW,302,2.9,5.4,53,0.00,,,0.05,WUHU216HW,2013-08-02 20:02:00,
2013-08-02 15:12:00,79.0,59.8,29.84,West,278,2.8,5.4,52,0.00,,,0.05,WUHU216HW,2013-08-02 20:12:00,
2013-08-02 15:22:00,79.3,58.3,29.85,WNW,300,3.8,6.5,49,0.00,,,0.05,WUHU216HW,2013-08-02 20:22:00,
2013-08-02 15:32:00,79.8,58.1,29.85,WNW,303,4.9,7.6,48,0.00,,,0.05,WUHU216HW,2013-08-02 20:32:00,
2013-08-02 15:42:00,79.1,56.9,29.85,WSW,238,5.7,10.1,47,0.00,,,0.05,WUHU216HW,2013-08-02 20:42:00,
2013-08-02 15:53:00,78.4,56.3,29.85,WNW,289,4.8,8.3,47,0.00,,,0.05,WUHU216HW,2013-08-02 20:53:00,
2013-08-02 16:03:00,78.3,55.5,29.85,WNW,296,4.8,6.9,46,0.00,,,0.05,WUHU216HW,2013-08-02 21:03:00,
2013-08-02 16:13:00,78.8,56.6,29.85,NW,306,4.0,7.2,47,0.00,,,0.05,WUHU216HW,2013-08-02 21:13:00,
2013-08-02 16:24:00,78.8,56.0,29.85,NW,314,4.1,6.0,46,0.00,,,0.05,WUHU216HW,2013-08-02 21:24:00,
2013-08-02 16:34:00,79.0,57.4,29.85,NW,318,3.8,6.3,48,0.00,,,0.05,WUHU216HW,2013-08-02 21:34:00,
2013-08-02 16:44:00,78.6,56.4,29.85,NW,307,4.9,7.6,47,0.00,,,0.05,WUHU216HW,2013-08-02 21:44:00,
2013-08-02 16:54:00,78.1,56.6,29.85,NNW,336,3.2,5.6,48,0.00,,,0.05,WUHU216HW,2013-08-02 21:54:00,
2013-08-02 17:04:00,77.8,57.4,29.85,NW,316,3.7,5.1,50,0.00,,,0.05,WUHU216HW,2013-08-02 22:04:00,
2013-08-02 17:15:00,77.3,56.9,29.85,NNW,341,2.8,5.6,50,0.00,,,0.05,WUHU216HW,2013-08-02 22:15:00,
2013-08-02 17:25:00,77.3,56.4,29.85,NW,323,3.2,5.8,49,0.00,,,0.05,WUHU216HW,2013-08-02 22:25:00,
2013-08-02 17:35:00,76.8,56.6,29.85,NW,308,3.4,4.3,50,0.00,,,0.05,WUHU216HW,2013-08-02 22:35:00,
2013-08-02 17:46:00,76.4,57.3,29.85,NNW,334,2.8,3.6,52,0.00,,,0.05,WUHU216HW,2013-08-02 22:46:00,
2013-08-02 17:56:00,76.1,57.1,29.86,NW,322,2.7,4.9,52,0.00,,,0.05,WUHU216HW,2013-08-02 22:56:00,
2013-08-02 18:06:00,75.5,57.1,29.86,NNW,332,2.3,3.1,53,0.00,,,0.05,WUHU216HW,2013-08-02 23:06:00,
2013-08-02 18:16:00,75.3,57.3,29.86,NNW,344,2.2,2.7,54,0.00,,,0.05,WUHU216HW,2013-08-02 23:16:00,
2013-08-02 18:27:00,74.3,56.5,29.86,North,356,2.6,5.4,54,0.00,,,0.05,WUHU216HW,2013-08-02 23:27:00,
2013-08-02 18:37:00,73.9,57.1,29.87,NNW,348,2.2,3.1,56,0.00,,,0.05,WUHU216HW,2013-08-02 23:37:00,
2013-08-02 18:47:00,73.4,56.7,29.87,North,350,1.9,3.1,56,0.00,,,0.05,WUHU216HW,2013-08-02 23:47:00,
2013-08-02 18:57:00,72.8,56.6,29.88,NW,324,1.7,3.1,57,0.00,,,0.05,WUHU216HW,2013-08-02 23:57:00,
2013-08-02 19:08:00,72.5,55.8,29.88,NW,308,2.0,3.6,56,0.00,,,0.05,WUHU216HW,2013-08-03 00:08:00,
2013-08-02 19:18:00,72.5,56.3,29.88,NNW,335,1.5,2.0,57,0.00,,,0.05,WUHU216HW,2013-08-03 00:18:00,
2013-08-02 19:28:00,72.1,56.5,29.89,NW,319,1.4,2.9,58,0.00,,,0.05,WUHU216HW,2013-08-03 00:28:00,
2013-08-02 19:39:00,71.8,56.7,29.89,NW,321,1.4,1.8,59,0.00,,,0.05,WUHU216HW,2013-08-03 00:39:00,
2013-08-02 19:49:00,71.0,56.9,29.90,NW,308,1.2,2.2,61,0.00,,,0.05,WUHU216HW,2013-08-03 00:49:00,
2013-08-02 19:59:00,70.3,55.7,29.90,NNW,330,0.7,1.6,60,0.00,,,0.05,WUHU216HW,2013-08-03 00:59:00,
2013-08-02 20:10:00,69.6,56.0,29.90,NW,314,1.3,2.5,62,0.00,,,0.05,WUHU216HW,2013-08-03 01:10:00,
2013-08-02 20:20:00,69.3,56.1,29.90,NNW,335,0.9,2.0,63,0.00,,,0.05,WUHU216HW,2013-08-03 01:20:00,
2013-08-02 20:30:00,68.5,55.8,29.91,NNW,345,1.3,1.8,64,0.00,,,0.05,WUHU216HW,2013-08-03 01:30:00,
2013-08-02 20:40:00,68.3,55.5,29.91,NNW,345,0.6,1.3,64,0.00,,,0.05,WUHU216HW,2013-08-03 01:40:00,
2013-08-02 20:50:00,67.4,54.8,29.91,NW,321,0.6,1.1,64,0.00,,,0.05,WUHU216HW,2013-08-03 01:50:00,
2013-08-02 21:01:00,66.8,54.6,29.91,NNW,338,0.2,0.2,64,0.00,,,0.05,WUHU216HW,2013-08-03 02:01:00,
2013-08-02 21:11:00,66.3,54.5,29.92,NNW,338,0.2,0.2,65,0.00,,,0.05,WUHU216HW,2013-08-03 02:11:00,
2013-08-02 21:21:00,65.8,54.5,29.92,NW,315,0.4,0.4,66,0.00,,,0.05,WUHU216HW,2013-08-03 02:21:00,
2013-08-02 21:32:00,65.5,55.4,29.92,North,357,0.7,1.1,69,0.00,,,0.05,WUHU216HW,2013-08-03 02:32:00,
2013-08-02 21:42:00,65.6,55.1,29.92,NNW,335,0.3,0.4,68,0.00,,,0.05,WUHU216HW,2013-08-03 02:42:00,
2013-08-02 21:52:00,65.3,54.9,29.93,NNW,332,0.4,0.9,68,0.00,,,0.05,WUHU216HW,2013-08-03 02:52:00,
2013-08-02 22:03:00,65.3,54.9,29.93,NNW,335,0.7,1.1,68,0.00,,,0.05,WUHU216HW,2013-08-03 03:03:00,
2013-08-02 22:13:00,65.1,54.7,29.93,NW,312,0.6,1.3,68,0.00,,,0.05,WUHU216HW,2013-08-03 03:13:00,
2013-08-02 22:23:00,65.3,54.5,29.92,NNW,334,0.8,1.8,67,0.00,,,0.05,WUHU216HW,2013-08-03 03:23:00,
2013-08-02 22:33:00,64.9,54.1,29.92,NNW,338,0.6,0.9,67,0.00,,,0.05,WUHU216HW,2013-08-03 03:33:00,
2013-08-02 22:43:00,65.1,54.3,29.93,NNW,348,0.9,1.3,67,0.00,,,0.05,WUHU216HW,2013-08-03 03:43:00,
2013-08-02 22:54:00,65.5,53.8,29.93,North,5,1.5,2.2,65,0.00,,,0.05,WUHU216HW,2013-08-03 03:54:00,
2013-08-02 23:04:00,65.3,53.6,29.93,North,355,1.1,2.9,65,0.00,,,0.05,WUHU216HW,2013-08-03 04:04:00,
2013-08-02 23:14:00,64.8,53.5,29.93,North,3,1.3,2.2,66,0.00,,,0.05,WUHU216HW,2013-08-03 04:14:00,
2013-08-02 23:24:00,64.6,53.4,29.93,North,354,1.3,1.8,66,0.00,,,0.05,WUHU216HW,2013-08-03 04:24:00,
2013-08-02 23:35:00,64.0,52.8,29.94,NNW,347,1.6,2.5,66,0.00,,,0.05,WUHU216HW,2013-08-03 04:35:00,
2013-08-02 23:45:00,63.8,52.9,29.94,North,6,1.3,2.0,67,0.00,,,0.05,WUHU216HW,2013-08-03 04:45:00,
2013-08-02 23:55:00,63.2,52.7,29.94,North,349,1.0,1.3,68,0.00,,,0.05,WUHU216HW,2013-08-03 04:55:00,